Time;durP1;ratioP1;P1;durP2;ratioP2;P2;SDS_P1;SDS_P2;PMS_P1;PMS_P2;Temp;Humidity;BMP_temperature;BMP_pressure;BME280_temperature;BME280_humidity;BME280_pressure;Samples;Min_cycle;Max_cycle;Signal;HPM_P1;HPM_P2
2021/08/26 00:00:44;;;;;;;4.18;1.33;;;17.30;99.90;;;;;;8257303;28;20046;-72
2021/08/26 00:09:07;;;;;;;5.88;1.27;;;17.30;99.90;;;;;;8260915;28;19921;-72
2021/08/26 00:13:11;;;;;;;4.00;1.27;;;17.30;99.90;;;;;;8261380;28;20661;-72
2021/08/26 00:17:14;;;;;;;6.25;1.60;;;17.30;99.90;;;;;;8255197;28;20058;-73
2021/08/26 00:21:16;;;;;;;4.82;1.60;;;17.30;99.90;;;;;;8254549;28;20042;-72
2021/08/26 00:25:18;;;;;;;7.65;1.50;;;17.30;99.90;;;;;;8260945;28;20054;-72
2021/08/26 00:29:19;;;;;;;5.47;1.50;;;17.30;99.90;;;;;;8259650;28;20474;-73
2021/08/26 00:33:21;;;;;;;4.82;1.50;;;17.30;99.90;;;;;;8255767;28;20049;-73
2021/08/26 00:37:23;;;;;;;6.90;1.67;;;17.30;99.90;;;;;;8260910;28;20046;-73
2021/08/26 00:41:25;;;;;;;6.20;1.73;;;17.30;99.90;;;;;;8259438;28;20053;-72
2021/08/26 00:45:30;;;;;;;8.15;1.60;;;17.30;99.90;;;;;;8261542;28;20054;-72
2021/08/26 00:49:32;;;;;;;6.90;1.63;;;17.30;99.90;;;;;;8255789;28;20386;-72
2021/08/26 00:53:34;;;;;;;7.55;1.52;;;17.20;99.90;;;;;;8259262;28;20128;-72
2021/08/26 00:57:36;;;;;;;8.05;2.05;;;17.20;99.90;;;;;;8258201;28;20054;-72
2021/08/26 01:01:59;;;;;;;7.68;1.73;;;17.20;99.90;;;;;;8251231;28;20061;-73
2021/08/26 01:06:11;;;;;;;8.00;2.13;;;17.10;99.90;;;;;;8267478;28;20050;-72
2021/08/26 01:10:16;;;;;;;5.95;2.10;;;17.10;99.90;;;;;;8258739;28;20054;-72
2021/08/26 01:14:18;;;;;;;9.50;2.20;;;17.10;99.90;;;;;;8259149;28;20714;-72
2021/08/26 01:18:20;;;;;;;4.85;1.83;;;17.10;99.90;;;;;;8256149;28;20581;-72
2021/08/26 01:22:24;;;;;;;8.77;1.98;;;17.10;99.90;;;;;;8251527;28;20069;-72
2021/08/26 01:26:38;;;;;;;6.45;2.13;;;17.10;99.90;;;;;;8251201;28;20061;-72
2021/08/26 01:30:43;;;;;;;7.05;2.20;;;17.00;99.90;;;;;;8259420;28;20101;-72
2021/08/26 01:34:44;;;;;;;8.57;2.10;;;17.10;99.90;;;;;;8256607;28;20206;-72
2021/08/26 01:38:47;;;;;;;7.00;1.88;;;17.10;99.90;;;;;;8255124;28;20046;-72
2021/08/26 01:42:49;;;;;;;9.23;1.98;;;17.10;99.90;;;;;;8256620;28;20046;-72
2021/08/26 01:46:52;;;;;;;7.35;2.22;;;17.10;99.90;;;;;;8259293;28;20106;-72
2021/08/26 01:50:54;;;;;;;9.50;2.45;;;17.10;99.90;;;;;;8256681;28;20513;-72
2021/08/26 01:54:59;;;;;;;8.15;2.55;;;17.10;99.90;;;;;;8272883;28;20050;-72
2021/08/26 01:59:01;;;;;;;9.38;2.47;;;17.00;99.90;;;;;;8257101;28;20475;-73
2021/08/26 02:03:03;;;;;;;6.22;2.50;;;17.00;99.90;;;;;;8255242;28;20474;-72
2021/08/26 02:07:05;;;;;;;9.82;3.10;;;17.00;99.90;;;;;;8253760;28;20050;-72
2021/08/26 02:11:06;;;;;;;10.52;2.90;;;17.00;99.90;;;;;;8259020;28;20081;-72
2021/08/26 02:15:09;;;;;;;9.35;2.40;;;16.90;99.90;;;;;;8259940;28;20047;-72
2021/08/26 02:19:11;;;;;;;8.70;2.63;;;16.90;99.90;;;;;;8257426;28;20042;-71
2021/08/26 02:23:13;;;;;;;8.80;2.70;;;16.90;99.90;;;;;;8258344;28;20420;-72
2021/08/26 02:27:14;;;;;;;6.47;2.30;;;16.90;99.90;;;;;;8256371;28;20077;-72
2021/08/26 02:31:16;;;;;;;12.50;2.78;;;16.90;99.90;;;;;;8256935;28;20065;-72
2021/08/26 02:35:18;;;;;;;10.52;2.60;;;16.90;99.90;;;;;;8256745;28;20054;-72
2021/08/26 02:39:25;;;;;;;10.35;2.80;;;16.90;99.90;;;;;;8257892;28;20087;-72
2021/08/26 02:43:27;;;;;;;10.93;2.85;;;16.90;99.90;;;;;;8254996;28;20051;-72
2021/08/26 02:47:28;;;;;;;10.10;2.55;;;16.90;99.90;;;;;;8257458;28;20061;-72
2021/08/26 02:51:30;;;;;;;7.15;2.58;;;16.90;99.90;;;;;;8251725;28;20410;-72
2021/08/26 02:55:32;;;;;;;12.57;3.10;;;16.80;99.90;;;;;;8253700;28;20051;-72
2021/08/26 02:59:34;;;;;;;7.47;2.42;;;16.80;99.90;;;;;;8255788;28;20165;-72
2021/08/26 03:03:35;;;;;;;11.07;2.50;;;16.80;99.90;;;;;;8259314;28;20186;-72
2021/08/26 03:07:37;;;;;;;10.75;2.75;;;16.80;99.90;;;;;;8261047;28;20482;-73
2021/08/26 03:11:39;;;;;;;9.02;2.63;;;16.80;99.90;;;;;;8258078;28;20043;-72
2021/08/26 03:15:41;;;;;;;11.13;2.63;;;16.80;99.90;;;;;;8264055;28;20051;-73
2021/08/26 03:19:44;;;;;;;14.65;2.65;;;16.80;99.90;;;;;;8275608;28;20050;-72
2021/08/26 03:23:46;;;;;;;10.43;3.03;;;16.80;99.90;;;;;;8260485;28;20580;-72
2021/08/26 03:27:48;;;;;;;11.18;3.38;;;16.70;99.90;;;;;;8261544;28;20414;-72
2021/08/26 03:31:50;;;;;;;11.32;3.05;;;16.60;99.90;;;;;;8261265;28;20073;-72
2021/08/26 03:35:51;;;;;;;12.45;3.33;;;16.60;99.90;;;;;;8262500;28;20050;-72
2021/08/26 03:39:53;;;;;;;13.10;3.42;;;16.50;99.90;;;;;;8260282;28;20042;-72
2021/08/26 03:43:55;;;;;;;11.65;3.38;;;16.40;99.90;;;;;;8259284;28;20049;-72
2021/08/26 03:47:56;;;;;;;8.73;3.05;;;16.40;99.90;;;;;;8259758;28;20043;-72
2021/08/26 03:51:59;;;;;;;16.15;3.17;;;16.40;99.90;;;;;;8260660;28;20046;-72
2021/08/26 03:56:01;;;;;;;13.77;3.10;;;16.40;99.90;;;;;;8262361;28;20482;-72
2021/08/26 04:00:03;;;;;;;10.10;2.60;;;16.40;99.90;;;;;;8259976;28;20093;-72
2021/08/26 04:04:05;;;;;;;9.73;2.78;;;16.40;99.90;;;;;;8257306;28;20153;-72
2021/08/26 04:08:07;;;;;;;10.13;2.40;;;16.40;99.90;;;;;;8254333;28;20046;-72
2021/08/26 04:12:08;;;;;;;12.70;2.72;;;16.40;99.90;;;;;;8257149;28;20046;-72
2021/08/26 04:16:10;;;;;;;12.63;2.55;;;16.50;99.90;;;;;;8257820;28;20482;-71
2021/08/26 04:25:35;;;;;;;10.13;2.70;;;16.50;99.90;;;;;;8260560;28;20040;-72
2021/08/26 04:29:36;;;;;;;8.82;2.25;;;16.50;99.90;;;;;;8270994;28;20047;-72
2021/08/26 04:33:38;;;;;;;10.13;2.42;;;16.50;99.90;;;;;;8255607;28;20054;-72
2021/08/26 04:37:40;;;;;;;8.05;2.15;;;16.60;99.90;;;;;;8275229;28;20046;-72
2021/08/26 04:41:43;;;;;;;9.45;2.40;;;16.60;99.90;;;;;;8254609;28;20054;-72
2021/08/26 04:45:45;;;;;;;8.20;2.53;;;16.50;99.90;;;;;;8257643;28;20047;-72
2021/08/26 04:49:46;;;;;;;7.78;2.60;;;16.50;99.90;;;;;;8257439;28;20386;-72
2021/08/26 04:53:48;;;;;;;9.90;2.50;;;16.50;99.90;;;;;;8255047;28;20490;-72
2021/08/26 04:57:50;;;;;;;11.20;2.15;;;16.50;99.90;;;;;;8259574;28;20458;-72
2021/08/26 05:01:52;;;;;;;9.93;2.35;;;16.50;99.90;;;;;;8258382;28;20050;-72
2021/08/26 05:05:54;;;;;;;7.35;2.10;;;16.40;99.90;;;;;;8259115;28;20338;-72
2021/08/26 05:09:55;;;;;;;8.35;2.00;;;16.50;99.90;;;;;;8257975;28;20061;-72
2021/08/26 05:13:57;;;;;;;8.38;2.20;;;16.50;99.90;;;;;;8256203;28;20505;-72
2021/08/26 05:17:59;;;;;;;10.32;2.22;;;16.50;99.90;;;;;;8257420;28;20042;-72
2021/08/26 05:22:00;;;;;;;8.13;2.20;;;16.40;99.90;;;;;;8257755;28;20482;-72
2021/08/26 05:26:03;;;;;;;10.20;2.03;;;16.40;99.90;;;;;;8257445;28;20157;-71
2021/08/26 05:30:05;;;;;;;11.35;2.58;;;16.40;99.90;;;;;;8256508;28;20465;-72
2021/08/26 05:34:07;;;;;;;7.63;2.60;;;16.40;99.90;;;;;;8258352;28;20057;-72
2021/08/26 05:38:08;;;;;;;10.20;2.08;;;16.40;99.90;;;;;;8259776;28;20042;-72
2021/08/26 05:42:10;;;;;;;10.88;2.53;;;16.40;99.90;;;;;;8253546;28;20054;-72
2021/08/26 05:46:12;;;;;;;8.98;1.80;;;16.50;99.90;;;;;;8260365;28;20042;-72
2021/08/26 05:50:15;;;;;;;7.50;1.65;;;16.50;99.90;;;;;;8254208;28;20125;-72
2021/08/26 05:54:17;;;;;;;7.10;1.52;;;16.50;99.90;;;;;;8257481;28;20509;-72
2021/08/26 05:58:19;;;;;;;6.03;1.85;;;16.50;99.90;;;;;;8250348;28;20162;-72
2021/08/26 06:02:20;;;;;;;9.30;1.90;;;16.50;99.90;;;;;;8248551;28;20069;-72
2021/08/26 06:06:23;;;;;;;9.85;1.77;;;16.50;99.90;;;;;;8253312;28;20133;-72
2021/08/26 06:10:25;;;;;;;7.20;1.80;;;16.50;99.90;;;;;;8250252;28;20062;-72
2021/08/26 06:14:26;;;;;;;6.45;1.60;;;16.50;99.90;;;;;;8252148;28;20050;-72
2021/08/26 06:18:29;;;;;;;7.75;1.70;;;16.60;99.90;;;;;;8246692;28;23769;-72
2021/08/26 06:22:31;;;;;;;4.97;1.58;;;16.60;99.90;;;;;;8250914;28;20495;-72
2021/08/26 06:26:34;;;;;;;11.07;2.30;;;16.60;99.90;;;;;;8250954;28;20058;-72
2021/08/26 06:30:36;;;;;;;6.40;1.63;;;16.70;99.90;;;;;;8248486;28;20061;-72
2021/08/26 06:34:38;;;;;;;6.50;1.60;;;16.70;99.90;;;;;;8264569;28;20061;-72
2021/08/26 06:38:39;;;;;;;7.13;2.33;;;16.70;99.90;;;;;;8252874;28;20097;-73
2021/08/26 06:42:42;;;;;;;8.77;1.90;;;16.70;99.90;;;;;;8252098;28;20328;-72
2021/08/26 06:46:44;;;;;;;9.35;2.00;;;16.80;99.90;;;;;;8257310;28;20493;-72
2021/08/26 06:50:47;;;;;;;4.53;1.65;;;16.80;99.90;;;;;;8249935;28;20417;-72
2021/08/26 06:54:49;;;;;;;8.18;1.80;;;16.90;99.90;;;;;;8254080;28;20136;-72
2021/08/26 06:58:51;;;;;;;9.23;1.80;;;17.00;99.90;;;;;;8253090;28;20054;-72
2021/08/26 07:02:54;;;;;;;8.38;1.85;;;17.00;99.90;;;;;;8253898;28;20050;-72
2021/08/26 07:06:56;;;;;;;6.03;1.60;;;17.00;99.90;;;;;;8255179;28;20042;-72
2021/08/26 07:10:58;;;;;;;12.07;2.03;;;17.00;99.90;;;;;;8254446;28;20054;-72
2021/08/26 07:15:00;;;;;;;8.10;1.88;;;17.00;99.90;;;;;;8255244;28;20418;-72
2021/08/26 07:19:01;;;;;;;7.72;2.20;;;17.20;99.90;;;;;;8253048;28;20502;-72
2021/08/26 07:23:03;;;;;;;9.95;1.83;;;17.30;99.90;;;;;;8255494;28;20046;-72
2021/08/26 07:27:05;;;;;;;8.25;1.80;;;17.40;99.90;;;;;;8254684;28;20077;-72
2021/08/26 07:31:07;;;;;;;10.27;1.75;;;17.30;99.90;;;;;;8254589;28;20053;-72
2021/08/26 07:35:09;;;;;;;5.80;1.63;;;17.20;99.90;;;;;;8254988;28;20053;-72
2021/08/26 07:39:11;;;;;;;8.63;1.88;;;17.20;99.90;;;;;;8269708;28;20057;-72
2021/08/26 07:43:14;;;;;;;7.43;1.60;;;17.10;99.90;;;;;;8253612;28;20478;-73
2021/08/26 07:47:15;;;;;;;5.68;1.50;;;17.00;99.90;;;;;;8240677;28;20054;-73
2021/08/26 07:51:17;;;;;;;12.23;2.40;;;17.00;99.90;;;;;;8253185;28;20046;-72
2021/08/26 07:55:19;;;;;;;6.38;1.73;;;17.10;99.90;;;;;;8254077;28;20058;-72
2021/08/26 07:59:20;;;;;;;4.35;1.48;;;17.20;99.90;;;;;;8253309;28;20494;-72
2021/08/26 08:03:22;;;;;;;6.80;1.52;;;17.40;99.90;;;;;;8254694;28;20509;-72
2021/08/26 08:07:24;;;;;;;7.53;1.70;;;17.40;99.90;;;;;;8253045;28;20053;-72
2021/08/26 08:11:26;;;;;;;6.65;1.48;;;17.40;99.90;;;;;;8242210;28;21388;-72
2021/08/26 08:15:35;;;;;;;3.60;1.17;;;17.50;99.90;;;;;;8254904;28;20193;-72
2021/08/26 08:19:37;;;;;;;3.88;1.17;;;17.50;99.90;;;;;;8253422;28;20402;-72
2021/08/26 08:23:38;;;;;;;5.40;1.67;;;17.50;99.90;;;;;;8251381;28;20053;-72
2021/08/26 08:27:40;;;;;;;3.10;1.10;;;17.50;99.90;;;;;;8252807;28;20053;-72
2021/08/26 08:31:42;;;;;;;9.05;1.60;;;17.50;99.90;;;;;;8250656;28;20061;-72
2021/08/26 08:35:44;;;;;;;9.65;1.48;;;17.60;99.90;;;;;;8252692;28;20506;-72
2021/08/26 08:39:45;;;;;;;5.43;2.13;;;17.60;99.90;;;;;;8250546;28;20061;-72
2021/08/26 08:43:48;;;;;;;5.53;1.60;;;17.70;99.90;;;;;;8252009;28;20042;-72
2021/08/26 08:47:51;;;;;;;5.55;1.42;;;17.60;99.90;;;;;;8249438;28;20046;-73
2021/08/26 08:51:55;;;;;;;7.22;1.77;;;17.60;99.90;;;;;;8252421;28;20069;-72
2021/08/26 08:55:57;;;;;;;6.10;1.50;;;17.60;99.90;;;;;;8251909;28;20058;-72
2021/08/26 08:59:58;;;;;;;5.40;1.58;;;17.60;99.90;;;;;;8247603;28;20089;-72
2021/08/26 09:04:00;;;;;;;7.07;1.73;;;17.60;99.90;;;;;;8249327;28;20410;-72
2021/08/26 09:08:09;;;;;;;8.70;1.60;;;17.70;99.90;;;;;;8246504;28;20042;-72
2021/08/26 09:12:11;;;;;;;6.07;1.58;;;17.70;99.90;;;;;;8249347;28;20054;-72
2021/08/26 09:16:14;;;;;;;8.23;1.83;;;17.70;99.90;;;;;;8251327;28;20057;-72
2021/08/26 09:20:20;;;;;;;6.47;1.52;;;17.90;99.90;;;;;;8248758;28;20108;-72
2021/08/26 09:24:22;;;;;;;7.75;1.67;;;17.90;99.90;;;;;;8250789;28;20537;-72
2021/08/26 09:28:33;;;;;;;7.38;1.48;;;18.00;99.90;;;;;;8250073;28;20066;-72
2021/08/26 09:32:50;;;;;;;7.88;1.88;;;18.00;99.90;;;;;;8249568;28;20046;-72
2021/08/26 09:36:54;;;;;;;9.52;2.20;;;18.00;99.90;;;;;;8250513;28;20177;-72
2021/08/26 09:40:56;;;;;;;7.07;1.75;;;18.10;99.90;;;;;;8264188;28;20047;-72
2021/08/26 09:45:15;;;;;;;6.32;2.00;;;18.10;99.90;;;;;;8250955;28;20513;-72
2021/08/26 09:49:19;;;;;;;8.55;2.10;;;18.10;99.90;;;;;;8246927;28;20046;-72
2021/08/26 09:53:33;;;;;;;6.82;2.13;;;18.00;99.90;;;;;;8251246;28;20473;-72
2021/08/26 09:57:37;;;;;;;8.82;2.20;;;18.00;99.90;;;;;;8250537;28;20379;-72
2021/08/26 10:01:39;;;;;;;6.20;2.13;;;17.90;99.90;;;;;;8250034;28;20332;-72
2021/08/26 10:05:45;;;;;;;7.90;2.15;;;17.80;99.90;;;;;;8248761;28;20125;-72
2021/08/26 10:09:47;;;;;;;11.25;2.17;;;17.80;99.90;;;;;;8248664;28;20046;-72
2021/08/26 10:13:50;;;;;;;8.50;2.22;;;17.80;99.90;;;;;;8255976;28;20451;-72
2021/08/26 10:17:53;;;;;;;10.95;2.47;;;17.90;99.90;;;;;;8256666;28;20054;-72
2021/08/26 10:21:54;;;;;;;10.32;2.88;;;17.90;99.90;;;;;;8254485;28;20046;-72
2021/08/26 10:25:58;;;;;;;9.95;3.03;;;17.90;99.90;;;;;;8255131;28;20058;-72
2021/08/26 10:29:59;;;;;;;7.47;2.38;;;17.90;99.90;;;;;;8254595;28;20047;-72
2021/08/26 10:34:23;;;;;;;9.27;2.97;;;17.90;99.90;;;;;;8255435;28;20046;-72
2021/08/26 10:38:35;;;;;;;10.98;2.65;;;18.00;99.90;;;;;;8251378;28;20061;-73
2021/08/26 10:42:41;;;;;;;6.85;2.30;;;17.90;99.90;;;;;;8251476;28;20046;-72
2021/08/26 10:46:50;;;;;;;9.05;2.75;;;17.80;99.90;;;;;;8252972;28;20410;-72
2021/08/26 10:51:06;;;;;;;9.07;2.80;;;17.90;99.90;;;;;;8248493;28;20490;-72
2021/08/26 10:55:41;;;;;;;8.95;2.72;;;17.90;99.90;;;;;;8265682;28;20517;-72
2021/08/26 10:59:43;;;;;;;14.65;3.25;;;18.00;99.90;;;;;;8252433;28;20055;-72
2021/08/26 11:07:47;;;;;;;14.25;3.30;;;18.00;99.90;;;;;;8253284;28;20049;-72
2021/08/26 11:11:52;;;;;;;9.70;2.95;;;18.10;99.90;;;;;;8249542;28;20050;-72
2021/08/26 11:15:55;;;;;;;8.13;2.97;;;18.10;99.90;;;;;;8251446;28;20054;-72
2021/08/26 11:19:58;;;;;;;14.05;3.28;;;18.10;99.90;;;;;;8252534;28;20058;-72
2021/08/26 11:23:59;;;;;;;10.70;2.92;;;18.00;99.90;;;;;;8250202;28;20049;-72
2021/08/26 11:28:27;;;;;;;12.38;3.50;;;17.90;99.90;;;;;;8265735;28;20397;-72
2021/08/26 11:32:32;;;;;;;10.40;2.92;;;17.90;99.90;;;;;;8247804;28;20061;-72
2021/08/26 11:36:34;;;;;;;10.55;3.30;;;18.00;99.90;;;;;;8255200;28;20714;-72
2021/08/26 11:40:36;;;;;;;9.45;2.83;;;18.10;99.90;;;;;;8263204;28;20073;-72
2021/08/26 11:44:38;;;;;;;16.08;3.60;;;18.10;99.90;;;;;;8252966;28;20051;-72
2021/08/26 11:48:52;;;;;;;12.30;2.97;;;18.10;99.90;;;;;;8251558;28;20042;-72
2021/08/26 11:52:59;;;;;;;13.63;3.97;;;18.20;99.90;;;;;;8253606;28;20058;-72
2021/08/26 11:57:06;;;;;;;9.88;3.58;;;18.40;99.90;;;;;;8251781;28;20050;-72
2021/08/26 12:01:07;;;;;;;10.43;2.80;;;18.40;99.90;;;;;;8250530;28;20065;-72
2021/08/26 12:05:14;;;;;;;7.88;2.40;;;18.40;99.90;;;;;;8266327;28;20824;-72
2021/08/26 12:09:17;;;;;;;8.77;2.40;;;18.40;99.90;;;;;;8249556;28;20047;-72
2021/08/26 12:13:26;;;;;;;5.95;2.35;;;18.50;99.90;;;;;;8252606;28;20649;-72
2021/08/26 12:17:28;;;;;;;8.90;2.58;;;18.50;99.90;;;;;;8251192;28;20054;-72
2021/08/26 12:21:30;;;;;;;8.32;2.50;;;18.70;99.90;;;;;;8248853;28;20061;-72
2021/08/26 12:25:38;;;;;;;10.30;2.75;;;18.70;99.90;;;;;;8251288;28;20061;-72
2021/08/26 12:29:44;;;;;;;8.05;2.70;;;18.80;99.90;;;;;;8249806;28;20152;-72
2021/08/26 12:33:56;;;;;;;8.33;3.13;;;18.80;99.90;;;;;;8249047;28;20042;-72
2021/08/26 12:38:00;;;;;;;7.53;2.88;;;18.70;99.90;;;;;;8245702;28;20057;-72
2021/08/26 12:42:03;;;;;;;12.35;2.90;;;18.70;99.90;;;;;;8243924;28;20406;-72
2021/08/26 12:46:06;;;;;;;13.32;2.95;;;18.70;99.90;;;;;;8238455;28;20053;-72
2021/08/26 12:50:09;;;;;;;10.40;3.10;;;18.70;99.90;;;;;;8248507;28;20046;-72
2021/08/26 12:54:13;;;;;;;13.32;3.30;;;18.70;99.90;;;;;;8266243;28;20141;-72
2021/08/26 12:58:15;;;;;;;8.93;2.72;;;18.70;99.90;;;;;;8250587;28;23390;-72
2021/08/26 13:02:17;;;;;;;8.48;3.05;;;18.80;99.90;;;;;;8250949;28;20042;-72
2021/08/26 13:06:42;;;;;;;9.77;2.90;;;18.90;99.90;;;;;;8251267;28;20054;-72
2021/08/26 13:10:46;;;;;;;9.40;2.47;;;19.00;99.90;;;;;;8248096;28;20050;-72
2021/08/26 13:14:50;;;;;;;10.73;2.72;;;19.00;99.90;;;;;;8246245;28;20483;-72
2021/08/26 13:18:52;;;;;;;7.82;2.65;;;19.00;99.90;;;;;;8252581;28;20509;-72
2021/08/26 13:22:53;;;;;;;14.25;4.38;;;19.00;99.90;;;;;;8252496;28;20457;-72
2021/08/26 13:26:58;;;;;;;8.30;2.25;;;19.00;99.90;;;;;;8251631;28;20133;-72
2021/08/26 13:31:00;;;;;;;7.78;2.40;;;19.00;99.90;;;;;;8250664;28;20073;-72
2021/08/26 13:35:08;;;;;;;10.38;2.20;;;19.00;99.90;;;;;;8251153;28;20042;-72
2021/08/26 13:39:10;;;;;;;8.75;2.45;;;19.00;99.90;;;;;;8265296;28;20104;-72
2021/08/26 13:43:11;;;;;;;8.32;2.28;;;19.00;99.90;;;;;;8237852;28;20057;-72
2021/08/26 13:47:13;;;;;;;7.88;2.60;;;18.90;99.90;;;;;;8250314;28;20042;-72
2021/08/26 13:51:15;;;;;;;6.68;2.17;;;18.80;99.90;;;;;;8249926;28;20046;-72
2021/08/26 13:55:17;;;;;;;6.30;1.80;;;18.80;99.90;;;;;;8250053;28;20528;-72
2021/08/26 13:59:18;;;;;;;6.97;2.40;;;18.80;99.90;;;;;;8247686;28;20057;-72
2021/08/26 14:03:20;;;;;;;11.57;3.03;;;18.90;99.90;;;;;;8250465;28;20039;-72
2021/08/26 14:07:22;;;;;;;11.20;2.40;;;19.00;99.90;;;;;;8250896;28;20057;-72
2021/08/26 14:11:24;;;;;;;8.70;2.60;;;19.00;99.90;;;;;;8247687;28;20577;-72
2021/08/26 14:15:26;;;;;;;8.55;2.50;;;19.20;99.90;;;;;;8251205;28;20073;-72
2021/08/26 14:19:28;;;;;;;11.93;2.75;;;19.30;99.90;;;;;;8247831;28;20050;-72
2021/08/26 14:23:30;;;;;;;7.75;2.85;;;19.40;99.90;;;;;;8250649;28;20057;-72
2021/08/26 14:27:32;;;;;;;11.82;3.42;;;19.40;99.90;;;;;;8250055;28;20042;-72
2021/08/26 14:31:33;;;;;;;10.93;3.67;;;19.40;99.90;;;;;;8250038;28;20339;-72
2021/08/26 14:35:35;;;;;;;11.48;3.30;;;19.40;99.90;;;;;;8250798;28;20042;-72
2021/08/26 14:39:39;;;;;;;8.68;3.20;;;19.30;99.90;;;;;;8249729;28;20490;-72
2021/08/26 14:43:44;;;;;;;11.23;3.22;;;19.20;99.90;;;;;;8250372;28;20054;-72
2021/08/26 14:47:45;;;;;;;10.98;3.10;;;19.10;99.90;;;;;;8250292;28;20461;-72
2021/08/26 14:51:47;;;;;;;10.27;3.25;;;19.10;99.90;;;;;;8265540;28;20038;-73
2021/08/26 14:55:50;;;;;;;12.05;3.78;;;19.20;99.90;;;;;;8249169;28;20065;-72
2021/08/26 14:59:51;;;;;;;14.15;4.00;;;19.30;99.90;;;;;;8254656;28;20042;-72
2021/08/26 15:03:53;;;;;;;9.80;3.03;;;19.40;99.90;;;;;;8254168;28;20047;-72
2021/08/26 15:07:55;;;;;;;10.88;3.30;;;19.40;99.90;;;;;;8255615;28;20053;-72
2021/08/26 15:11:57;;;;;;;11.10;2.72;;;19.40;99.90;;;;;;8269673;28;20054;-72
2021/08/26 15:15:59;;;;;;;9.63;3.05;;;19.50;99.90;;;;;;8255776;28;20054;-72
2021/08/26 15:20:02;;;;;;;10.40;3.33;;;19.70;99.90;;;;;;8253671;28;20062;-72
2021/08/26 15:24:05;;;;;;;11.05;3.92;;;20.00;99.90;;;;;;8253818;28;20039;-72
2021/08/26 15:28:07;;;;;;;12.75;3.92;;;20.10;99.90;;;;;;8266378;28;20050;-72
2021/08/26 15:32:10;;;;;;;14.07;4.20;;;20.20;99.90;;;;;;8254191;28;20417;-72
2021/08/26 15:36:12;;;;;;;;;;;20.30;99.90;;;;;;8269924;28;20380;-72
2021/08/26 15:40:13;;;;;;;;;;;20.30;99.90;;;;;;8253184;28;19937;-72
2021/08/26 15:44:16;;;;;;;;;;;20.20;99.90;;;;;;8254382;28;19925;-72
2021/08/26 15:48:17;;;;;;;10.60;3.30;;;20.10;99.90;;;;;;8253661;28;20285;-72
2021/08/26 15:52:20;;;;;;;19.23;3.63;;;20.00;99.90;;;;;;8253038;28;19936;-72
2021/08/26 15:56:23;;;;;;;8.77;3.03;;;20.00;99.90;;;;;;8253840;28;20782;-72
2021/08/26 16:00:43;;;;;;;12.27;2.90;;;20.00;99.90;;;;;;8252574;28;19933;-72
2021/08/26 16:04:45;;;;;;;11.05;3.10;;;20.00;99.90;;;;;;8253707;28;20097;-72
2021/08/26 16:08:47;;;;;;;11.73;3.20;;;20.00;99.90;;;;;;8250831;28;20046;-72
2021/08/26 16:12:49;;;;;;;;;;;19.90;99.90;;;;;;8269069;28;20054;-72
2021/08/26 16:16:51;;;;;;;12.75;3.22;;;19.90;99.90;;;;;;8252479;28;19922;-72
2021/08/26 16:20:52;;;;;;;9.43;2.90;;;19.90;99.90;;;;;;8250427;28;20089;-72
2021/08/26 16:24:54;;;;;;;11.85;3.90;;;19.80;99.90;;;;;;8251508;28;20054;-71
2021/08/26 16:28:56;;;;;;;;;;;19.80;99.90;;;;;;8252167;28;19926;-72
2021/08/26 16:32:58;;;;;;;;;;;19.70;99.90;;;;;;8252690;28;20366;-72
2021/08/26 16:37:00;;;;;;;;;;;19.70;99.90;;;;;;8252350;28;20005;-72
2021/08/26 16:41:02;;;;;;;;;;;19.70;99.90;;;;;;8251844;28;19925;-72
2021/08/26 16:45:05;;;;;;;;;;;19.70;99.90;;;;;;8252410;28;19957;-72
2021/08/26 16:49:07;;;;;;;;;;;19.70;99.90;;;;;;8265132;28;19937;-72
2021/08/26 16:53:08;;;;;;;;;;;19.70;99.90;;;;;;8253179;28;19937;-72
2021/08/26 16:57:10;;;;;;;;;;;19.70;99.90;;;;;;8252344;28;19932;-72
2021/08/26 17:01:11;;;;;;;;;;;19.60;99.90;;;;;;8251906;28;19925;-72
2021/08/26 17:05:14;;;;;;;;;;;19.60;99.90;;;;;;8252454;28;20635;-72
2021/08/26 17:09:16;;;;;;;;;;;19.60;99.90;;;;;;8239633;28;19926;-72
2021/08/26 17:13:17;;;;;;;;;;;19.60;99.90;;;;;;8252320;28;19925;-72
2021/08/26 17:17:19;;;;;;;;;;;19.70;99.90;;;;;;8252087;28;19934;-72
2021/08/26 17:21:21;;;;;;;;;;;19.80;99.90;;;;;;8246846;28;19934;-72
2021/08/26 17:25:22;;;;;;;;;;;19.80;99.90;;;;;;8251807;28;19929;-72
2021/08/26 17:29:24;;;;;;;;;;;19.90;99.90;;;;;;8248943;28;19926;-72
2021/08/26 17:33:26;;;;;;;;;;;19.90;99.90;;;;;;8251174;28;20382;-72
2021/08/26 17:37:28;;;;;;;;;;;20.00;99.90;;;;;;8251222;28;20411;-72
2021/08/26 17:41:29;;;;;;;;;;;20.00;99.90;;;;;;8251306;28;19932;-72
2021/08/26 17:45:31;;;;;;;;;;;20.00;99.90;;;;;;8249601;28;19925;-72
2021/08/26 17:49:33;;;;;;;;;;;19.90;99.90;;;;;;8249692;28;19965;-72
2021/08/26 17:53:35;;;;;;;;;;;19.90;99.90;;;;;;8252701;28;19926;-72
2021/08/26 17:57:37;;;;;;;;;;;19.80;99.90;;;;;;8263169;28;20590;-72
2021/08/26 18:01:39;;;;;;;;;;;19.70;99.90;;;;;;8251882;28;20278;-72
2021/08/26 18:05:40;;;;;;;;;;;19.60;99.90;;;;;;8251313;28;19925;-72
2021/08/26 18:09:42;;;;;;;;;;;19.50;99.90;;;;;;8250114;28;20345;-72
2021/08/26 18:13:44;;;;;;;4.43;1.20;;;19.50;99.90;;;;;;8251389;28;19929;-72
2021/08/26 18:17:48;;;;;;;2.80;0.90;;;19.40;99.90;;;;;;8250572;28;20434;-73
2021/08/26 18:21:50;;;;;;;6.55;1.55;;;19.20;99.90;;;;;;8264057;28;20051;-73
2021/08/26 18:25:52;;;;;;;3.50;0.90;;;19.10;99.90;;;;;;8252354;28;20062;-73
2021/08/26 18:29:53;;;;;;;3.00;0.85;;;19.10;99.90;;;;;;8264949;28;20490;-72
2021/08/26 18:33:55;;;;;;;3.33;0.80;;;19.00;99.90;;;;;;8254824;28;20042;-72
2021/08/26 18:37:57;;;;;;;4.97;0.90;;;19.00;99.90;;;;;;8256089;28;20054;-72
2021/08/26 18:41:59;;;;;;;6.78;1.00;;;18.90;99.90;;;;;;8256711;28;20399;-72
2021/08/26 18:46:00;;;;;;;4.10;0.80;;;18.80;99.90;;;;;;8256094;28;20038;-72
2021/08/26 18:50:05;;;;;;;5.22;1.20;;;18.80;99.90;;;;;;8257495;28;20094;-72
2021/08/26 18:54:07;;;;;;;3.45;0.90;;;18.70;99.90;;;;;;8259466;28;20042;-72
2021/08/26 18:58:08;;;;;;;4.70;1.20;;;18.60;99.90;;;;;;8256582;28;20568;-73
2021/08/26 19:02:10;;;;;;;4.50;1.10;;;18.50;99.90;;;;;;8269536;28;20081;-72
2021/08/26 19:06:12;;;;;;;3.22;0.73;;;18.50;99.90;;;;;;8253802;28;20072;-72
2021/08/26 19:10:14;;;;;;;3.63;0.80;;;18.40;99.90;;;;;;8268894;28;20057;-72
2021/08/26 19:14:17;;;;;;;3.10;0.90;;;18.40;99.90;;;;;;8256583;28;20058;-73
2021/08/26 19:18:19;;;;;;;6.90;1.05;;;18.30;99.90;;;;;;8253519;28;20073;-72
2021/08/26 19:22:22;;;;;;;3.03;0.93;;;18.30;99.90;;;;;;8255736;28;20038;-72
2021/08/26 19:26:24;;;;;;;5.75;1.10;;;18.20;99.90;;;;;;8268507;28;20054;-72
2021/08/26 19:30:26;;;;;;;4.03;0.70;;;18.20;99.90;;;;;;8248777;28;20054;-72
2021/08/26 19:34:27;;;;;;;5.07;0.90;;;18.20;99.90;;;;;;8254603;28;20351;-72
2021/08/26 19:38:29;;;;;;;5.88;1.40;;;18.10;99.90;;;;;;8248224;28;20062;-72
2021/08/26 19:42:31;;;;;;;4.50;0.90;;;18.10;99.90;;;;;;8251948;28;20508;-72
2021/08/26 19:46:33;;;;;;;4.55;1.08;;;18.10;99.90;;;;;;8251769;28;20104;-72
2021/08/26 19:50:34;;;;;;;4.60;1.00;;;18.10;99.90;;;;;;8252248;28;20054;-72
2021/08/26 19:54:36;;;;;;;2.97;0.90;;;18.00;99.90;;;;;;8253486;28;20517;-72
2021/08/26 19:58:38;;;;;;;4.10;1.00;;;18.00;99.90;;;;;;8253373;28;20057;-73
2021/08/26 20:02:41;;;;;;;3.63;0.80;;;18.00;99.90;;;;;;8249796;28;20133;-72
2021/08/26 20:06:43;;;;;;;8.20;1.25;;;17.90;99.90;;;;;;8254809;28;20049;-72
2021/08/26 20:10:45;;;;;;;2.60;0.88;;;17.90;99.90;;;;;;8247782;28;20088;-72
2021/08/26 20:14:47;;;;;;;4.40;1.23;;;17.90;99.90;;;;;;8247344;28;20089;-72
2021/08/26 20:18:49;;;;;;;5.30;1.30;;;17.80;99.90;;;;;;8244516;28;20046;-72
2021/08/26 20:23:07;;;;;;;5.57;1.10;;;17.70;99.90;;;;;;8247959;28;20653;-72
2021/08/26 20:27:09;;;;;;;4.90;1.05;;;17.60;99.90;;;;;;8246040;28;20058;-72
2021/08/26 20:31:11;;;;;;;1.98;0.85;;;17.50;99.90;;;;;;8245491;28;23276;-73
2021/08/26 20:35:13;;;;;;;2.85;0.90;;;17.50;99.90;;;;;;8246759;28;20058;-72
2021/08/26 20:39:15;;;;;;;3.17;0.90;;;17.30;99.90;;;;;;8247547;28;20046;-72
2021/08/26 20:43:16;;;;;;;3.88;0.98;;;17.20;99.90;;;;;;8267602;28;20050;-72
2021/08/26 20:47:18;;;;;;;5.28;1.40;;;17.10;99.90;;;;;;8250695;28;20050;-72
2021/08/26 20:51:20;;;;;;;3.88;1.20;;;17.00;99.90;;;;;;8251411;28;20042;-72
2021/08/26 20:55:22;;;;;;;5.00;1.10;;;17.00;99.90;;;;;;8251728;28;20065;-72
2021/08/26 20:59:23;;;;;;;4.45;1.15;;;16.90;99.90;;;;;;8250050;28;20052;-73
2021/08/26 21:03:25;;;;;;;3.55;1.02;;;16.80;99.90;;;;;;8272042;28;20042;-72
2021/08/26 21:07:27;;;;;;;5.28;1.13;;;16.80;99.90;;;;;;8274408;28;20049;-72
2021/08/26 21:11:29;;;;;;;5.85;1.00;;;16.80;99.90;;;;;;8250073;28;20050;-72
2021/08/26 21:15:31;;;;;;;6.00;1.20;;;16.80;99.90;;;;;;8257094;28;20065;-73
2021/08/26 21:19:33;;;;;;;4.20;1.00;;;16.80;99.90;;;;;;8257751;28;20062;-72
2021/08/26 21:23:34;;;;;;;2.92;0.90;;;16.80;99.90;;;;;;8258520;28;20046;-72
2021/08/26 21:27:36;;;;;;;3.88;1.23;;;16.70;99.90;;;;;;8256692;28;20054;-72